sensor_id;sensor_type;location;lat;lon;timestamp;pressure;altitude;pressure_sealevel;temperature;humidity
6134;BME280;3098;42.678;23.364;2023-09-18T00:01:39;95550.47;;;16.43;100.00
6134;BME280;3098;42.678;23.364;2023-09-18T00:04:06;95533.66;;;16.43;100.00
6134;BME280;3098;42.678;23.364;2023-09-18T00:06:35;95347.00;;;15.24;100.00
6134;BME280;3098;42.678;23.364;2023-09-18T00:09:03;95543.94;;;16.53;100.00
6134;BME280;3098;42.678;23.364;2023-09-18T00:11:30;95486.38;;;16.26;100.00
6134;BME280;3098;42.678;23.364;2023-09-18T00:13:57;95536.06;;;16.56;100.00
6134;BME280;3098;42.678;23.364;2023-09-18T00:16:25;95428.78;;;15.87;100.00
6134;BME280;3098;42.678;23.364;2023-09-18T00:18:52;95416.88;;;15.85;100.00
6134;BME280;3098;42.678;23.364;2023-09-18T00:21:21;95519.84;;;16.53;100.00
6134;BME280;3098;42.678;23.364;2023-09-18T00:23:52;95473.19;;;16.21;100.00
6134;BME280;3098;42.678;23.364;2023-09-18T00:26:19;95347.00;;;15.45;100.00
6134;BME280;3098;42.678;23.364;2023-09-18T00:28:46;95400.56;;;15.78;100.00
6134;BME280;3098;42.678;23.364;2023-09-18T00:31:13;95482.94;;;16.26;100.00
6134;BME280;3098;42.678;23.364;2023-09-18T00:33:40;95532.16;;;16.66;100.00
6134;BME280;3098;42.678;23.364;2023-09-18T00:36:07;95511.88;;;16.65;100.00
6134;BME280;3098;42.678;23.364;2023-09-18T00:38:35;95502.47;;;16.59;100.00
6134;BME280;3098;42.678;23.364;2023-09-18T00:41:03;95412.72;;;16.08;100.00
6134;BME280;3098;42.678;23.364;2023-09-18T00:43:31;95425.22;;;16.16;100.00
6134;BME280;3098;42.678;23.364;2023-09-18T00:46:00;95529.69;;;16.94;100.00
6134;BME280;3098;42.678;23.364;2023-09-18T00:48:27;95468.47;;;16.72;100.00
6134;BME280;3098;42.678;23.364;2023-09-18T00:50:55;95486.47;;;16.95;100.00
6134;BME280;3098;42.678;23.364;2023-09-18T00:53:23;95502.22;;;17.09;100.00
6134;BME280;3098;42.678;23.364;2023-09-18T00:55:54;95410.38;;;16.51;100.00
6134;BME280;3098;42.678;23.364;2023-09-18T00:58:26;95506.25;;;17.15;100.00
6134;BME280;3098;42.678;23.364;2023-09-18T01:00:53;95388.59;;;16.41;100.00
6134;BME280;3098;42.678;23.364;2023-09-18T01:03:21;95394.50;;;16.46;100.00
6134;BME280;3098;42.678;23.364;2023-09-18T01:05:51;95273.63;;;15.75;100.00
6134;BME280;3098;42.678;23.364;2023-09-18T01:08:18;95294.91;;;15.84;100.00
6134;BME280;3098;42.678;23.364;2023-09-18T01:10:52;95495.06;;;17.01;100.00
6134;BME280;3098;42.678;23.364;2023-09-18T01:13:27;95303.16;;;15.79;100.00
6134;BME280;3098;42.678;23.364;2023-09-18T01:16:00;95506.03;;;17.08;100.00
6134;BME280;3098;42.678;23.364;2023-09-18T01:18:30;95465.13;;;16.75;100.00
6134;BME280;3098;42.678;23.364;2023-09-18T01:20:57;95361.75;;;16.04;100.00
6134;BME280;3098;42.678;23.364;2023-09-18T01:23:26;95290.81;;;15.53;100.00
6134;BME280;3098;42.678;23.364;2023-09-18T01:25:54;95188.31;;;14.84;100.00
6134;BME280;3098;42.678;23.364;2023-09-18T01:28:21;95519.06;;;16.85;100.00
6134;BME280;3098;42.678;23.364;2023-09-18T01:30:48;95343.28;;;15.79;100.00
6134;BME280;3098;42.678;23.364;2023-09-18T01:33:15;95469.69;;;16.62;100.00
6134;BME280;3098;42.678;23.364;2023-09-18T01:35:45;95431.66;;;16.36;100.00
6134;BME280;3098;42.678;23.364;2023-09-18T01:38:13;95511.00;;;16.73;100.00
6134;BME280;3098;42.678;23.364;2023-09-18T01:40:43;95454.78;;;16.40;100.00
6134;BME280;3098;42.678;23.364;2023-09-18T01:43:11;95508.41;;;16.64;100.00
6134;BME280;3098;42.678;23.364;2023-09-18T01:45:39;95399.63;;;15.94;100.00
6134;BME280;3098;42.678;23.364;2023-09-18T01:48:07;95469.69;;;16.41;100.00
6134;BME280;3098;42.678;23.364;2023-09-18T01:50:36;95160.19;;;14.45;100.00
6134;BME280;3098;42.678;23.364;2023-09-18T01:53:05;95508.19;;;16.70;100.00
6134;BME280;3098;42.678;23.364;2023-09-18T01:55:33;95382.53;;;15.87;100.00
6134;BME280;3098;42.678;23.364;2023-09-18T01:58:02;95448.00;;;16.22;100.00
6134;BME280;3098;42.678;23.364;2023-09-18T02:00:29;95396.31;;;15.97;100.00
6134;BME280;3098;42.678;23.364;2023-09-18T02:02:56;95482.34;;;16.53;100.00
6134;BME280;3098;42.678;23.364;2023-09-18T02:05:23;95228.19;;;14.89;100.00
6134;BME280;3098;42.678;23.364;2023-09-18T02:07:51;95279.75;;;15.22;100.00
6134;BME280;3098;42.678;23.364;2023-09-18T02:10:19;95514.50;;;16.86;100.00
6134;BME280;3098;42.678;23.364;2023-09-18T02:12:46;95473.81;;;16.59;100.00
6134;BME280;3098;42.678;23.364;2023-09-18T02:15:14;95390.53;;;16.07;100.00
6134;BME280;3098;42.678;23.364;2023-09-18T02:17:42;95426.81;;;16.29;100.00
6134;BME280;3098;42.678;23.364;2023-09-18T02:20:10;95514.59;;;16.89;100.00
6134;BME280;3098;42.678;23.364;2023-09-18T02:22:39;95377.31;;;15.90;100.00
6134;BME280;3098;42.678;23.364;2023-09-18T02:25:07;95482.69;;;16.51;100.00
6134;BME280;3098;42.678;23.364;2023-09-18T02:27:35;95488.81;;;16.52;100.00
6134;BME280;3098;42.678;23.364;2023-09-18T02:30:02;95379.44;;;15.64;100.00
6134;BME280;3098;42.678;23.364;2023-09-18T02:32:30;95408.19;;;15.88;100.00
6134;BME280;3098;42.678;23.364;2023-09-18T02:34:58;95492.34;;;16.44;100.00
6134;BME280;3098;42.678;23.364;2023-09-18T02:37:25;95404.66;;;15.75;100.00
6134;BME280;3098;42.678;23.364;2023-09-18T02:39:54;95324.53;;;15.25;100.00
6134;BME280;3098;42.678;23.364;2023-09-18T02:42:21;95481.72;;;16.35;100.00
6134;BME280;3098;42.678;23.364;2023-09-18T02:44:49;95351.34;;;15.37;100.00
6134;BME280;3098;42.678;23.364;2023-09-18T02:47:16;95460.44;;;16.06;100.00
6134;BME280;3098;42.678;23.364;2023-09-18T02:49:45;95454.81;;;15.99;100.00
6134;BME280;3098;42.678;23.364;2023-09-18T02:52:13;95457.56;;;15.90;100.00
6134;BME280;3098;42.678;23.364;2023-09-18T02:54:40;95423.78;;;15.65;100.00
6134;BME280;3098;42.678;23.364;2023-09-18T02:57:07;95457.19;;;15.80;100.00
6134;BME280;3098;42.678;23.364;2023-09-18T02:59:34;95471.28;;;15.89;100.00
6134;BME280;3098;42.678;23.364;2023-09-18T03:02:02;95530.59;;;16.12;100.00
6134;BME280;3098;42.678;23.364;2023-09-18T03:04:29;95524.66;;;16.06;100.00
6134;BME280;3098;42.678;23.364;2023-09-18T03:06:59;95524.19;;;16.04;100.00
6134;BME280;3098;42.678;23.364;2023-09-18T03:09:26;95508.00;;;15.80;100.00
6134;BME280;3098;42.678;23.364;2023-09-18T03:11:54;95497.50;;;15.75;100.00
6134;BME280;3098;42.678;23.364;2023-09-18T03:14:22;95409.66;;;15.15;100.00
6134;BME280;3098;42.678;23.364;2023-09-18T03:16:49;95548.03;;;15.97;100.00
6134;BME280;3098;42.678;23.364;2023-09-18T03:19:16;95531.19;;;15.96;100.00
6134;BME280;3098;42.678;23.364;2023-09-18T03:21:47;95538.28;;;15.92;100.00
6134;BME280;3098;42.678;23.364;2023-09-18T03:24:16;95531.56;;;15.86;100.00
6134;BME280;3098;42.678;23.364;2023-09-18T03:26:43;95475.06;;;15.46;100.00
6134;BME280;3098;42.678;23.364;2023-09-18T03:29:10;95431.28;;;15.22;100.00
6134;BME280;3098;42.678;23.364;2023-09-18T03:31:37;95526.34;;;15.90;100.00
6134;BME280;3098;42.678;23.364;2023-09-18T03:34:05;95488.81;;;15.57;100.00
6134;BME280;3098;42.678;23.364;2023-09-18T03:36:34;95529.91;;;15.73;100.00
6134;BME280;3098;42.678;23.364;2023-09-18T03:39:03;95528.47;;;15.76;100.00
6134;BME280;3098;42.678;23.364;2023-09-18T03:41:32;95496.88;;;15.48;100.00
6134;BME280;3098;42.678;23.364;2023-09-18T03:43:59;95510.84;;;15.54;100.00
6134;BME280;3098;42.678;23.364;2023-09-18T03:46:27;95459.59;;;15.23;100.00
6134;BME280;3098;42.678;23.364;2023-09-18T03:48:56;95489.34;;;15.42;100.00
6134;BME280;3098;42.678;23.364;2023-09-18T03:51:23;95514.75;;;15.57;100.00
6134;BME280;3098;42.678;23.364;2023-09-18T03:53:51;95526.84;;;15.63;100.00
6134;BME280;3098;42.678;23.364;2023-09-18T03:56:19;95526.06;;;15.62;100.00
6134;BME280;3098;42.678;23.364;2023-09-18T03:58:48;95461.97;;;15.16;100.00
6134;BME280;3098;42.678;23.364;2023-09-18T04:01:19;95470.22;;;15.31;100.00
6134;BME280;3098;42.678;23.364;2023-09-18T04:03:47;95511.44;;;15.60;100.00
6134;BME280;3098;42.678;23.364;2023-09-18T04:06:14;95532.34;;;15.66;100.00
6134;BME280;3098;42.678;23.364;2023-09-18T04:08:42;95507.34;;;15.62;100.00
6134;BME280;3098;42.678;23.364;2023-09-18T04:11:10;95405.28;;;14.81;100.00
6134;BME280;3098;42.678;23.364;2023-09-18T04:13:37;95527.50;;;15.60;100.00
6134;BME280;3098;42.678;23.364;2023-09-18T04:16:06;95492.06;;;15.33;100.00
6134;BME280;3098;42.678;23.364;2023-09-18T04:18:34;95533.63;;;15.60;100.00
6134;BME280;3098;42.678;23.364;2023-09-18T04:21:02;95511.50;;;15.42;100.00
6134;BME280;3098;42.678;23.364;2023-09-18T04:23:30;95463.53;;;15.17;100.00
6134;BME280;3098;42.678;23.364;2023-09-18T04:25:57;95537.69;;;15.66;100.00
6134;BME280;3098;42.678;23.364;2023-09-18T04:28:25;95539.38;;;15.71;100.00
6134;BME280;3098;42.678;23.364;2023-09-18T04:30:52;95534.38;;;15.69;100.00
6134;BME280;3098;42.678;23.364;2023-09-18T04:33:21;95512.44;;;15.55;100.00
6134;BME280;3098;42.678;23.364;2023-09-18T04:35:48;95537.03;;;15.69;100.00
6134;BME280;3098;42.678;23.364;2023-09-18T04:38:15;95538.88;;;15.77;100.00
6134;BME280;3098;42.678;23.364;2023-09-18T04:40:45;95538.34;;;15.84;100.00
6134;BME280;3098;42.678;23.364;2023-09-18T04:43:14;95490.56;;;15.53;100.00
6134;BME280;3098;42.678;23.364;2023-09-18T04:45:41;95472.19;;;15.51;100.00
6134;BME280;3098;42.678;23.364;2023-09-18T04:48:09;95536.66;;;16.00;100.00
6134;BME280;3098;42.678;23.364;2023-09-18T04:50:38;95525.50;;;15.98;100.00
6134;BME280;3098;42.678;23.364;2023-09-18T04:53:05;95529.16;;;16.14;100.00
6134;BME280;3098;42.678;23.364;2023-09-18T04:55:32;95531.13;;;16.26;100.00
6134;BME280;3098;42.678;23.364;2023-09-18T04:57:59;95503.50;;;16.13;100.00
6134;BME280;3098;42.678;23.364;2023-09-18T05:00:27;95473.03;;;16.05;100.00
6134;BME280;3098;42.678;23.364;2023-09-18T05:02:55;95504.50;;;16.41;100.00
6134;BME280;3098;42.678;23.364;2023-09-18T05:05:22;95518.19;;;16.60;100.00
6134;BME280;3098;42.678;23.364;2023-09-18T05:07:50;95482.06;;;16.54;100.00
6134;BME280;3098;42.678;23.364;2023-09-18T05:10:18;95489.66;;;16.64;100.00
6134;BME280;3098;42.678;23.364;2023-09-18T05:12:45;95485.41;;;16.63;100.00
6134;BME280;3098;42.678;23.364;2023-09-18T05:15:13;95519.84;;;16.98;100.00
6134;BME280;3098;42.678;23.364;2023-09-18T05:17:43;95472.53;;;17.02;100.00
6134;BME280;3098;42.678;23.364;2023-09-18T05:20:12;95484.16;;;17.18;100.00
6134;BME280;3098;42.678;23.364;2023-09-18T05:22:41;95476.47;;;18.05;100.00
6134;BME280;3098;42.678;23.364;2023-09-18T05:25:10;95387.28;;;18.55;100.00
6134;BME280;3098;42.678;23.364;2023-09-18T05:27:38;95374.44;;;19.45;100.00
6134;BME280;3098;42.678;23.364;2023-09-18T05:30:11;95451.59;;;20.72;100.00
6134;BME280;3098;42.678;23.364;2023-09-18T05:32:41;95464.72;;;21.42;100.00
6134;BME280;3098;42.678;23.364;2023-09-18T05:35:09;95398.94;;;21.83;100.00
6134;BME280;3098;42.678;23.364;2023-09-18T05:37:38;95407.69;;;22.69;100.00
6134;BME280;3098;42.678;23.364;2023-09-18T05:40:07;95378.72;;;22.73;100.00
6134;BME280;3098;42.678;23.364;2023-09-18T05:42:39;95398.44;;;22.74;100.00
6134;BME280;3098;42.678;23.364;2023-09-18T05:45:09;95388.13;;;22.86;100.00
6134;BME280;3098;42.678;23.364;2023-09-18T05:47:36;95390.03;;;23.33;100.00
6134;BME280;3098;42.678;23.364;2023-09-18T05:50:04;95449.66;;;24.02;100.00
6134;BME280;3098;42.678;23.364;2023-09-18T05:52:32;95412.06;;;23.93;98.29
6134;BME280;3098;42.678;23.364;2023-09-18T05:54:59;95420.72;;;24.27;95.94
6134;BME280;3098;42.678;23.364;2023-09-18T05:57:26;95428.97;;;24.59;93.15
6134;BME280;3098;42.678;23.364;2023-09-18T05:59:56;95456.13;;;24.66;91.89
6134;BME280;3098;42.678;23.364;2023-09-18T06:02:24;95300.66;;;24.13;89.25
6134;BME280;3098;42.678;23.364;2023-09-18T06:04:54;95433.19;;;26.12;83.31
6134;BME280;3098;42.678;23.364;2023-09-18T06:07:24;95424.41;;;25.58;81.05
6134;BME280;3098;42.678;23.364;2023-09-18T06:09:51;95451.84;;;26.03;80.65
6134;BME280;3098;42.678;23.364;2023-09-18T06:12:18;95452.47;;;26.56;78.98
6134;BME280;3098;42.678;23.364;2023-09-18T06:14:45;95460.41;;;25.98;77.87
6134;BME280;3098;42.678;23.364;2023-09-18T06:17:15;95444.50;;;25.96;77.67
6134;BME280;3098;42.678;23.364;2023-09-18T06:19:44;95444.53;;;25.75;77.47
6134;BME280;3098;42.678;23.364;2023-09-18T06:22:14;95462.06;;;26.71;76.52
6134;BME280;3098;42.678;23.364;2023-09-18T06:24:42;95453.75;;;27.00;71.96
6134;BME280;3098;42.678;23.364;2023-09-18T06:27:09;95419.13;;;26.31;72.21
6134;BME280;3098;42.678;23.364;2023-09-18T06:29:36;95459.22;;;27.00;72.34
6134;BME280;3098;42.678;23.364;2023-09-18T06:32:05;95462.41;;;27.39;69.99
6134;BME280;3098;42.678;23.364;2023-09-18T06:34:34;95459.41;;;28.15;66.51
6134;BME280;3098;42.678;23.364;2023-09-18T06:37:02;95463.94;;;28.59;64.51
6134;BME280;3098;42.678;23.364;2023-09-18T06:39:31;95429.41;;;28.15;64.23
6134;BME280;3098;42.678;23.364;2023-09-18T06:41:59;95393.72;;;27.17;64.16
6134;BME280;3098;42.678;23.364;2023-09-18T06:44:26;95464.16;;;28.08;64.04
6134;BME280;3098;42.678;23.364;2023-09-18T06:46:53;95400.38;;;27.98;62.30
6134;BME280;3098;42.678;23.364;2023-09-18T06:49:22;95475.41;;;29.57;58.90
6134;BME280;3098;42.678;23.364;2023-09-18T06:51:55;95339.06;;;26.98;61.66
6134;BME280;3098;42.678;23.364;2023-09-18T06:54:22;95352.13;;;27.13;63.38
6134;BME280;3098;42.678;23.364;2023-09-18T06:56:50;95452.81;;;27.72;64.46
6134;BME280;3098;42.678;23.364;2023-09-18T06:59:17;95441.50;;;28.44;61.23
6134;BME280;3098;42.678;23.364;2023-09-18T07:01:46;95455.47;;;27.79;62.42
6134;BME280;3098;42.678;23.364;2023-09-18T07:04:13;95464.75;;;26.86;65.18
6134;BME280;3098;42.678;23.364;2023-09-18T07:06:40;95439.25;;;26.51;69.18
6134;BME280;3098;42.678;23.364;2023-09-18T07:09:09;95422.91;;;28.36;61.90
6134;BME280;3098;42.678;23.364;2023-09-18T07:11:38;95328.00;;;28.24;59.49
6134;BME280;3098;42.678;23.364;2023-09-18T07:14:05;95429.47;;;28.08;59.83
6134;BME280;3098;42.678;23.364;2023-09-18T07:16:33;95461.81;;;26.48;65.13
6134;BME280;3098;42.678;23.364;2023-09-18T07:19:01;95422.44;;;26.70;66.24
6134;BME280;3098;42.678;23.364;2023-09-18T07:21:30;95270.44;;;27.13;62.35
6134;BME280;3098;42.678;23.364;2023-09-18T07:23:58;95391.81;;;28.87;58.04
6134;BME280;3098;42.678;23.364;2023-09-18T07:26:28;95461.81;;;29.54;56.30
6134;BME280;3098;42.678;23.364;2023-09-18T07:28:55;95462.66;;;29.51;56.73
6134;BME280;3098;42.678;23.364;2023-09-18T07:31:22;95434.25;;;29.18;56.74
6134;BME280;3098;42.678;23.364;2023-09-18T07:33:49;95432.19;;;28.72;56.70
6134;BME280;3098;42.678;23.364;2023-09-18T07:36:18;95474.66;;;29.03;57.19
6134;BME280;3098;42.678;23.364;2023-09-18T07:38:45;95459.72;;;29.12;56.60
6134;BME280;3098;42.678;23.364;2023-09-18T07:41:13;95461.91;;;29.24;56.88
6134;BME280;3098;42.678;23.364;2023-09-18T07:43:42;95466.00;;;29.35;55.36
6134;BME280;3098;42.678;23.364;2023-09-18T07:46:09;95471.47;;;29.58;55.21
6134;BME280;3098;42.678;23.364;2023-09-18T07:48:36;95427.16;;;30.53;52.33
6134;BME280;3098;42.678;23.364;2023-09-18T07:51:03;95474.56;;;30.86;50.99
6134;BME280;3098;42.678;23.364;2023-09-18T07:53:31;95447.78;;;30.57;50.76
6134;BME280;3098;42.678;23.364;2023-09-18T07:55:58;95448.75;;;30.28;50.40
6134;BME280;3098;42.678;23.364;2023-09-18T07:58:27;95425.22;;;29.21;52.81
6134;BME280;3098;42.678;23.364;2023-09-18T08:00:56;95464.66;;;29.70;52.97
6134;BME280;3098;42.678;23.364;2023-09-18T08:03:24;95444.56;;;29.80;52.52
6134;BME280;3098;42.678;23.364;2023-09-18T08:05:51;95448.69;;;30.70;50.35
6134;BME280;3098;42.678;23.364;2023-09-18T08:08:19;95451.25;;;30.97;50.29
6134;BME280;3098;42.678;23.364;2023-09-18T08:10:48;95451.69;;;30.76;49.84
6134;BME280;3098;42.678;23.364;2023-09-18T08:13:16;95428.84;;;30.47;49.43
6134;BME280;3098;42.678;23.364;2023-09-18T08:15:45;95417.28;;;30.91;48.73
6134;BME280;3098;42.678;23.364;2023-09-18T08:18:14;95442.28;;;31.13;48.31
6134;BME280;3098;42.678;23.364;2023-09-18T08:20:41;95427.19;;;31.37;48.32
6134;BME280;3098;42.678;23.364;2023-09-18T08:23:09;95447.19;;;31.70;47.13
6134;BME280;3098;42.678;23.364;2023-09-18T08:25:38;95346.59;;;31.35;45.64
6134;BME280;3098;42.678;23.364;2023-09-18T08:28:07;95337.69;;;31.30;45.42
6134;BME280;3098;42.678;23.364;2023-09-18T08:30:34;95414.63;;;32.29;44.33
6134;BME280;3098;42.678;23.364;2023-09-18T08:33:03;95323.97;;;32.71;42.26
6134;BME280;3098;42.678;23.364;2023-09-18T08:35:32;95445.72;;;33.69;41.52
6134;BME280;3098;42.678;23.364;2023-09-18T08:38:00;95405.50;;;33.24;41.63
6134;BME280;3098;42.678;23.364;2023-09-18T08:40:28;95377.97;;;32.07;42.96
6134;BME280;3098;42.678;23.364;2023-09-18T08:42:57;95418.56;;;31.55;44.49
6134;BME280;3098;42.678;23.364;2023-09-18T08:45:35;95322.47;;;30.81;45.33
6134;BME280;3098;42.678;23.364;2023-09-18T08:48:06;95369.56;;;31.08;45.41
6134;BME280;3098;42.678;23.364;2023-09-18T08:50:36;95425.31;;;31.34;45.31
6134;BME280;3098;42.678;23.364;2023-09-18T08:53:04;95352.72;;;30.58;45.31
6134;BME280;3098;42.678;23.364;2023-09-18T08:55:33;95228.19;;;29.78;45.62
6134;BME280;3098;42.678;23.364;2023-09-18T08:58:01;95378.31;;;31.03;46.88
6134;BME280;3098;42.678;23.364;2023-09-18T09:00:29;95414.13;;;29.78;48.97
6134;BME280;3098;42.678;23.364;2023-09-18T09:02:58;95375.84;;;30.37;47.45
6134;BME280;3098;42.678;23.364;2023-09-18T09:05:26;95414.63;;;31.56;44.46
6134;BME280;3098;42.678;23.364;2023-09-18T09:07:56;95370.19;;;32.06;43.00
6134;BME280;3098;42.678;23.364;2023-09-18T09:10:24;95417.13;;;31.95;43.15
6134;BME280;3098;42.678;23.364;2023-09-18T09:12:56;95411.94;;;32.13;42.22
6134;BME280;3098;42.678;23.364;2023-09-18T09:15:25;95382.16;;;31.54;43.36
6134;BME280;3098;42.678;23.364;2023-09-18T09:18:03;95374.84;;;29.69;46.77
6134;BME280;3098;42.678;23.364;2023-09-18T09:20:32;95371.97;;;29.56;47.55
6134;BME280;3098;42.678;23.364;2023-09-18T09:23:03;95410.13;;;29.40;49.27
6134;BME280;3098;42.678;23.364;2023-09-18T09:25:35;95398.94;;;30.36;47.57
6134;BME280;3098;42.678;23.364;2023-09-18T09:28:04;95294.84;;;28.52;48.68
6134;BME280;3098;42.678;23.364;2023-09-18T09:30:33;95170.31;;;28.15;47.53
6134;BME280;3098;42.678;23.364;2023-09-18T09:33:03;95384.25;;;27.73;51.08
6134;BME280;3098;42.678;23.364;2023-09-18T09:35:32;95405.25;;;27.76;52.59
6134;BME280;3098;42.678;23.364;2023-09-18T09:38:07;95372.94;;;27.41;54.40
6134;BME280;3098;42.678;23.364;2023-09-18T09:40:39;95343.63;;;27.52;52.25
6134;BME280;3098;42.678;23.364;2023-09-18T09:43:10;95390.22;;;28.32;51.42
6134;BME280;3098;42.678;23.364;2023-09-18T09:45:40;95281.34;;;29.15;48.33
6134;BME280;3098;42.678;23.364;2023-09-18T09:48:08;95348.03;;;29.83;46.91
6134;BME280;3098;42.678;23.364;2023-09-18T09:50:45;95164.56;;;27.79;48.04
6134;BME280;3098;42.678;23.364;2023-09-18T09:53:15;95143.88;;;26.95;48.84
6134;BME280;3098;42.678;23.364;2023-09-18T09:55:42;95213.63;;;26.74;50.38
6134;BME280;3098;42.678;23.364;2023-09-18T09:58:11;95384.06;;;29.55;48.61
6134;BME280;3098;42.678;23.364;2023-09-18T10:00:43;95381.34;;;28.55;48.69
6134;BME280;3098;42.678;23.364;2023-09-18T10:03:13;95372.03;;;28.22;49.73
6134;BME280;3098;42.678;23.364;2023-09-18T10:05:43;95302.97;;;27.65;50.22
6134;BME280;3098;42.678;23.364;2023-09-18T10:08:12;95367.56;;;29.16;48.35
6134;BME280;3098;42.678;23.364;2023-09-18T10:10:45;95120.09;;;27.29;48.38
6134;BME280;3098;42.678;23.364;2023-09-18T10:13:17;95222.44;;;28.44;47.39
6134;BME280;3098;42.678;23.364;2023-09-18T10:15:48;95365.09;;;29.25;47.63
6134;BME280;3098;42.678;23.364;2023-09-18T10:18:19;95343.31;;;29.18;47.52
6134;BME280;3098;42.678;23.364;2023-09-18T10:20:51;95308.47;;;29.48;46.33
6134;BME280;3098;42.678;23.364;2023-09-18T10:23:31;95370.88;;;29.50;46.41
6134;BME280;3098;42.678;23.364;2023-09-18T10:26:04;95375.47;;;29.99;45.82
6134;BME280;3098;42.678;23.364;2023-09-18T10:28:32;95292.53;;;29.43;45.60
6134;BME280;3098;42.678;23.364;2023-09-18T10:31:00;95201.19;;;28.09;46.37
6134;BME280;3098;42.678;23.364;2023-09-18T10:33:29;95349.88;;;29.24;46.46
6134;BME280;3098;42.678;23.364;2023-09-18T10:35:57;95329.47;;;29.32;46.46
6134;BME280;3098;42.678;23.364;2023-09-18T10:38:27;95314.72;;;29.69;44.42
6134;BME280;3098;42.678;23.364;2023-09-18T10:40:58;95159.25;;;27.72;46.04
6134;BME280;3098;42.678;23.364;2023-09-18T10:43:28;95304.69;;;28.16;48.25
6134;BME280;3098;42.678;23.364;2023-09-18T10:45:55;95324.34;;;28.34;47.48
6134;BME280;3098;42.678;23.364;2023-09-18T10:48:24;95330.47;;;28.68;47.24
6134;BME280;3098;42.678;23.364;2023-09-18T10:50:52;95320.94;;;28.53;46.79
6134;BME280;3098;42.678;23.364;2023-09-18T10:53:20;95325.28;;;29.00;46.58
6134;BME280;3098;42.678;23.364;2023-09-18T10:55:48;95320.00;;;29.13;45.55
6134;BME280;3098;42.678;23.364;2023-09-18T10:58:24;95311.84;;;29.33;45.17
6134;BME280;3098;42.678;23.364;2023-09-18T11:00:54;95329.59;;;29.44;44.46
6134;BME280;3098;42.678;23.364;2023-09-18T11:03:23;95312.50;;;28.71;46.87
6134;BME280;3098;42.678;23.364;2023-09-18T11:06:03;95252.63;;;28.83;44.82
6134;BME280;3098;42.678;23.364;2023-09-18T11:08:32;95319.34;;;28.82;46.40
6134;BME280;3098;42.678;23.364;2023-09-18T11:11:03;95281.03;;;28.63;46.68
6134;BME280;3098;42.678;23.364;2023-09-18T11:13:37;95303.50;;;28.74;46.70
6134;BME280;3098;42.678;23.364;2023-09-18T11:16:18;95301.22;;;28.69;45.76
6134;BME280;3098;42.678;23.364;2023-09-18T11:19:12;95181.06;;;27.95;45.51
6134;BME280;3098;42.678;23.364;2023-09-18T11:21:40;95233.13;;;26.69;48.42
6134;BME280;3098;42.678;23.364;2023-09-18T11:24:16;95222.66;;;27.09;48.67
6134;BME280;3098;42.678;23.364;2023-09-18T11:26:45;95147.09;;;26.82;47.83
6134;BME280;3098;42.678;23.364;2023-09-18T11:29:15;95288.28;;;28.19;46.77
6134;BME280;3098;42.678;23.364;2023-09-18T11:31:47;95067.25;;;27.23;45.70
6134;BME280;3098;42.678;23.364;2023-09-18T11:34:19;95251.03;;;28.59;45.72
6134;BME280;3098;42.678;23.364;2023-09-18T11:36:48;95270.19;;;28.56;46.41
6134;BME280;3098;42.678;23.364;2023-09-18T11:39:34;95276.47;;;28.29;46.85
6134;BME280;3098;42.678;23.364;2023-09-18T11:42:12;95268.97;;;27.76;47.21
6134;BME280;3098;42.678;23.364;2023-09-18T11:44:39;95269.06;;;28.00;47.73
6134;BME280;3098;42.678;23.364;2023-09-18T11:47:14;95186.06;;;27.74;47.12
6134;BME280;3098;42.678;23.364;2023-09-18T11:49:51;95265.50;;;28.06;47.11
6134;BME280;3098;42.678;23.364;2023-09-18T11:52:21;95262.00;;;28.02;47.74
6134;BME280;3098;42.678;23.364;2023-09-18T11:54:48;95262.75;;;28.60;46.88
6134;BME280;3098;42.678;23.364;2023-09-18T11:57:17;95259.06;;;28.46;46.64
6134;BME280;3098;42.678;23.364;2023-09-18T11:59:45;95223.97;;;27.31;48.83
6134;BME280;3098;42.678;23.364;2023-09-18T12:02:25;95263.63;;;26.50;50.19
6134;BME280;3098;42.678;23.364;2023-09-18T12:04:53;95210.06;;;25.85;51.23
6134;BME280;3098;42.678;23.364;2023-09-18T12:07:20;95246.66;;;26.32;51.67
6134;BME280;3098;42.678;23.364;2023-09-18T12:09:48;95246.38;;;26.67;51.60
6134;BME280;3098;42.678;23.364;2023-09-18T12:12:16;95260.47;;;26.55;52.82
6134;BME280;3098;42.678;23.364;2023-09-18T12:14:44;95257.69;;;26.00;54.85
6134;BME280;3098;42.678;23.364;2023-09-18T12:17:17;95196.75;;;25.22;55.51
6134;BME280;3098;42.678;23.364;2023-09-18T12:19:52;95172.84;;;24.88;56.75
6134;BME280;3098;42.678;23.364;2023-09-18T12:22:24;95187.44;;;25.23;56.68
6134;BME280;3098;42.678;23.364;2023-09-18T12:24:51;95232.69;;;25.61;55.75
6134;BME280;3098;42.678;23.364;2023-09-18T12:27:18;95142.53;;;25.07;56.02
6134;BME280;3098;42.678;23.364;2023-09-18T12:29:46;95147.56;;;25.05;55.83
6134;BME280;3098;42.678;23.364;2023-09-18T12:32:15;95181.22;;;25.26;56.02
6134;BME280;3098;42.678;23.364;2023-09-18T12:34:43;95234.91;;;25.80;56.42
6134;BME280;3098;42.678;23.364;2023-09-18T12:37:12;95139.00;;;25.10;56.35
6134;BME280;3098;42.678;23.364;2023-09-18T12:39:40;95229.88;;;25.79;56.38
6134;BME280;3098;42.678;23.364;2023-09-18T12:42:07;95194.75;;;25.40;56.33
6134;BME280;3098;42.678;23.364;2023-09-18T12:44:36;95196.75;;;25.22;56.65
6134;BME280;3098;42.678;23.364;2023-09-18T12:47:03;95245.16;;;25.51;57.50
6134;BME280;3098;42.678;23.364;2023-09-18T12:49:33;95237.38;;;25.53;57.75
6134;BME280;3098;42.678;23.364;2023-09-18T12:52:01;95224.03;;;25.84;57.18
6134;BME280;3098;42.678;23.364;2023-09-18T12:54:39;95196.31;;;25.34;56.55
6134;BME280;3098;42.678;23.364;2023-09-18T12:57:07;95185.81;;;25.36;57.05
6134;BME280;3098;42.678;23.364;2023-09-18T12:59:37;95176.91;;;25.35;56.62
6134;BME280;3098;42.678;23.364;2023-09-18T13:02:05;95152.16;;;25.19;56.54
6134;BME280;3098;42.678;23.364;2023-09-18T13:04:35;95100.81;;;24.55;57.56
6134;BME280;3098;42.678;23.364;2023-09-18T13:07:06;95185.22;;;24.93;58.20
6134;BME280;3098;42.678;23.364;2023-09-18T13:09:33;95157.34;;;24.89;58.27
6134;BME280;3098;42.678;23.364;2023-09-18T13:12:01;95224.25;;;25.27;58.52
6134;BME280;3098;42.678;23.364;2023-09-18T13:14:29;95224.31;;;25.13;58.37